createdAt,value
2018-06-29T00:00:06.889Z,1015.25
2018-06-29T00:01:06.899Z,1015.26
2018-06-29T00:02:06.902Z,1015.29
2018-06-29T00:03:06.910Z,1015.30
2018-06-29T00:04:06.911Z,1015.30
2018-06-29T00:05:06.918Z,1015.27
2018-06-29T00:06:06.923Z,1015.29
2018-06-29T00:07:06.926Z,1015.31
2018-06-29T00:08:06.938Z,1015.29
2018-06-29T00:09:06.934Z,1015.27
2018-06-29T00:10:06.941Z,1015.28
2018-06-29T00:11:06.948Z,1015.27
2018-06-29T00:12:06.954Z,1015.26
2018-06-29T00:13:06.951Z,1015.29
2018-06-29T00:14:06.967Z,1015.25
2018-06-29T00:15:06.968Z,1015.27
2018-06-29T00:16:06.966Z,1015.26
2018-06-29T00:17:06.983Z,1015.29
2018-06-29T00:18:06.985Z,1015.25
2018-06-29T00:19:07.708Z,1015.28
2018-06-29T00:20:06.989Z,1015.24
2018-06-29T00:21:06.997Z,1015.26
2018-06-29T00:22:07.008Z,1015.25
2018-06-29T00:23:07.054Z,1015.27
2018-06-29T00:24:07.008Z,1015.26
2018-06-29T00:25:07.021Z,1015.26
2018-06-29T00:26:07.026Z,1015.28
2018-06-29T00:27:07.027Z,1015.25
2018-06-29T00:28:08.434Z,1015.27
2018-06-29T00:29:08.471Z,1015.24
2018-06-29T00:30:08.463Z,1015.24
2018-06-29T00:31:07.678Z,1015.22
2018-06-29T00:32:08.473Z,1015.19
2018-06-29T00:33:07.441Z,1015.19
2018-06-29T00:34:07.568Z,1015.18
2018-06-29T00:35:07.867Z,1015.16
2018-06-29T00:36:08.411Z,1015.13
2018-06-29T00:37:07.447Z,1015.14
2018-06-29T00:38:07.093Z,1015.11
2018-06-29T00:39:07.087Z,1015.11
2018-06-29T00:40:07.116Z,1015.06
2018-06-29T00:41:07.095Z,1015.10
2018-06-29T00:42:07.259Z,1015.09
2018-06-29T00:43:07.106Z,1015.06
2018-06-29T00:44:07.116Z,1015.11
2018-06-29T00:45:07.115Z,1015.09
2018-06-29T00:46:07.125Z,1015.10
2018-06-29T00:47:07.126Z,1015.09
2018-06-29T00:48:07.140Z,1015.10
2018-06-29T00:49:07.141Z,1015.14
2018-06-29T00:50:07.151Z,1015.12
2018-06-29T00:51:07.153Z,1015.09
2018-06-29T00:52:07.159Z,1015.14
2018-06-29T00:53:07.157Z,1015.10
2018-06-29T00:54:07.168Z,1015.11
2018-06-29T00:55:07.171Z,1015.13
2018-06-29T00:56:07.719Z,1015.10
2018-06-29T00:57:07.182Z,1015.12
2018-06-29T00:58:07.178Z,1015.07
2018-06-29T00:59:07.203Z,1015.10
2018-06-29T01:00:07.196Z,1015.07
2018-06-29T01:01:07.195Z,1015.12
2018-06-29T01:02:07.215Z,1015.10
2018-06-29T01:03:07.204Z,1015.10
2018-06-29T01:04:07.211Z,1015.09
2018-06-29T01:05:07.221Z,1015.10
2018-06-29T01:06:07.222Z,1015.10
2018-06-29T01:07:07.731Z,1015.08
2018-06-29T01:08:07.253Z,1015.10
2018-06-29T01:09:07.235Z,1015.08
2018-06-29T01:10:07.248Z,1015.11
2018-06-29T01:11:07.242Z,1015.11
2018-06-29T01:12:07.253Z,1015.06
2018-06-29T01:13:07.258Z,1015.07
2018-06-29T01:14:07.259Z,1015.08
2018-06-29T01:15:07.269Z,1015.07
2018-06-29T01:16:07.274Z,1015.08
2018-06-29T01:17:07.270Z,1015.10
2018-06-29T01:18:07.281Z,1015.08
2018-06-29T01:19:07.282Z,1015.07
2018-06-29T01:20:07.283Z,1015.11
2018-06-29T01:21:07.297Z,1015.04
2018-06-29T01:22:07.304Z,1015.06
2018-06-29T01:23:07.302Z,1015.03
2018-06-29T01:24:07.306Z,1015.04
2018-06-29T01:25:07.320Z,1015.06
2018-06-29T01:26:07.317Z,1015.04
2018-06-29T01:27:07.333Z,1015.07
2018-06-29T01:28:07.327Z,1015.07
2018-06-29T01:29:07.329Z,1015.07
2018-06-29T01:30:07.336Z,1015.04
2018-06-29T01:31:07.346Z,1015.06
2018-06-29T01:32:07.340Z,1015.08
2018-06-29T01:33:07.353Z,1015.07
2018-06-29T01:34:07.352Z,1015.07
2018-06-29T01:35:07.360Z,1015.08
2018-06-29T01:36:07.368Z,1015.07
2018-06-29T01:37:07.364Z,1015.06
2018-06-29T01:38:07.372Z,1015.07
2018-06-29T01:39:07.385Z,1015.00
2018-06-29T01:40:07.389Z,1015.06
2018-06-29T01:41:07.413Z,1015.08
2018-06-29T01:42:07.396Z,1015.05
2018-06-29T01:43:07.394Z,1015.05
2018-06-29T01:44:07.401Z,1015.07
2018-06-29T01:45:07.424Z,1015.06
2018-06-29T01:46:07.420Z,1015.06
2018-06-29T01:47:07.418Z,1015.03
2018-06-29T01:48:07.426Z,1014.95
2018-06-29T01:49:07.422Z,1014.96
2018-06-29T01:50:07.429Z,1015.02
2018-06-29T01:51:07.431Z,1014.94
2018-06-29T01:52:07.466Z,1014.94
2018-06-29T01:53:07.446Z,1014.91
2018-06-29T01:54:07.447Z,1014.93
2018-06-29T01:55:07.454Z,1014.93
2018-06-29T01:56:07.453Z,1014.98
2018-06-29T01:57:07.467Z,1014.91
2018-06-29T01:58:07.462Z,1014.93
2018-06-29T01:59:07.477Z,1014.93
2018-06-29T02:00:09.049Z,1014.91
2018-06-29T02:01:08.071Z,1014.89
2018-06-29T02:02:08.996Z,1014.87
2018-06-29T02:03:07.491Z,1014.86
2018-06-29T02:04:07.490Z,1014.86
2018-06-29T02:05:07.501Z,1014.90
2018-06-29T02:06:07.503Z,1014.90
2018-06-29T02:07:07.510Z,1014.92
2018-06-29T02:08:07.530Z,1014.91
2018-06-29T02:09:07.514Z,1014.93
2018-06-29T02:10:07.517Z,1014.89
2018-06-29T02:11:08.256Z,1014.90
2018-06-29T02:12:07.524Z,1014.87
2018-06-29T02:13:07.536Z,1014.89
2018-06-29T02:14:07.539Z,1014.85
2018-06-29T02:15:07.544Z,1014.90
2018-06-29T02:16:07.543Z,1014.94
2018-06-29T02:17:07.550Z,1014.90
2018-06-29T02:18:07.553Z,1014.90
2018-06-29T02:19:07.559Z,1014.94
2018-06-29T02:20:07.560Z,1014.94
2018-06-29T02:21:07.568Z,1014.94
2018-06-29T02:22:07.566Z,1014.91
2018-06-29T02:23:07.582Z,1014.93
2018-06-29T02:24:07.575Z,1014.92
2018-06-29T02:25:07.591Z,1014.93
2018-06-29T02:26:07.584Z,1014.92
2018-06-29T02:27:07.592Z,1014.97
2018-06-29T02:28:07.596Z,1014.94
2018-06-29T02:29:07.620Z,1014.88
2018-06-29T02:30:07.646Z,1014.87
2018-06-29T02:31:07.621Z,1014.84
2018-06-29T02:32:07.614Z,1014.85
2018-06-29T02:33:07.618Z,1014.83
2018-06-29T02:34:07.626Z,1014.86
2018-06-29T02:35:07.627Z,1014.84
2018-06-29T02:36:07.633Z,1014.79
2018-06-29T02:37:07.633Z,1014.79
2018-06-29T02:38:07.643Z,1014.78
2018-06-29T02:39:07.642Z,1014.77
2018-06-29T02:40:07.646Z,1014.75
2018-06-29T02:41:07.656Z,1014.74
2018-06-29T02:42:07.654Z,1014.74
2018-06-29T02:43:07.666Z,1014.73
2018-06-29T02:44:07.672Z,1014.76
2018-06-29T02:45:07.671Z,1014.73
2018-06-29T02:46:07.684Z,1014.73
2018-06-29T02:47:07.672Z,1014.71
2018-06-29T02:48:07.685Z,1014.76
2018-06-29T02:49:07.686Z,1014.77
2018-06-29T02:50:07.693Z,1014.76
2018-06-29T02:51:07.697Z,1014.74
2018-06-29T02:52:07.701Z,1014.78
2018-06-29T02:53:07.699Z,1014.81
2018-06-29T02:54:07.705Z,1014.79
2018-06-29T02:55:07.718Z,1014.81
2018-06-29T02:56:07.709Z,1014.85
2018-06-29T02:57:07.721Z,1014.82
2018-06-29T02:58:07.727Z,1014.85
2018-06-29T02:59:07.739Z,1014.85
2018-06-29T03:00:07.739Z,1014.86
2018-06-29T03:01:07.791Z,1014.82
2018-06-29T03:02:07.799Z,1014.86
2018-06-29T03:03:07.799Z,1014.91
2018-06-29T03:04:07.790Z,1014.93
2018-06-29T03:05:07.806Z,1014.93
2018-06-29T03:06:07.761Z,1014.97
2018-06-29T03:07:07.767Z,1014.96
2018-06-29T03:08:07.767Z,1014.97
2018-06-29T03:09:07.765Z,1014.98
2018-06-29T03:10:07.776Z,1014.94
2018-06-29T03:11:07.772Z,1014.94
2018-06-29T03:12:07.787Z,1014.93
2018-06-29T03:13:07.779Z,1014.93
2018-06-29T03:14:07.783Z,1014.88
2018-06-29T03:15:07.805Z,1014.94
2018-06-29T03:16:07.794Z,1014.92
2018-06-29T03:17:07.807Z,1014.90
2018-06-29T03:18:07.802Z,1014.89
2018-06-29T03:19:07.811Z,1014.88
2018-06-29T03:20:07.818Z,1014.89
2018-06-29T03:21:07.825Z,1014.90
2018-06-29T03:22:07.825Z,1014.89
2018-06-29T03:23:07.825Z,1014.87
2018-06-29T03:24:07.835Z,1014.90
2018-06-29T03:25:07.844Z,1014.88
2018-06-29T03:26:07.831Z,1014.88
2018-06-29T03:27:07.844Z,1014.90
2018-06-29T03:28:07.848Z,1014.90
2018-06-29T03:29:07.848Z,1014.88
2018-06-29T03:30:07.854Z,1014.85
2018-06-29T03:31:07.860Z,1014.86
2018-06-29T03:32:07.862Z,1014.87
2018-06-29T03:33:07.885Z,1014.85
2018-06-29T03:34:07.864Z,1014.83
2018-06-29T03:35:07.881Z,1014.80
2018-06-29T03:36:07.872Z,1014.80
2018-06-29T03:37:07.883Z,1014.79
2018-06-29T03:38:07.884Z,1014.81
2018-06-29T03:39:07.892Z,1014.73
2018-06-29T03:40:07.887Z,1014.79
2018-06-29T03:41:07.901Z,1014.79
2018-06-29T03:42:07.900Z,1014.80
2018-06-29T03:43:07.904Z,1014.82
2018-06-29T03:44:07.916Z,1014.87
2018-06-29T03:45:07.912Z,1014.81
2018-06-29T03:46:07.919Z,1014.80
2018-06-29T03:47:07.918Z,1014.82
2018-06-29T03:48:07.917Z,1014.80
2018-06-29T03:49:07.929Z,1014.82
2018-06-29T03:50:07.934Z,1014.78
2018-06-29T03:51:07.931Z,1014.76
2018-06-29T03:52:07.938Z,1014.70
2018-06-29T03:53:07.947Z,1014.72
2018-06-29T03:54:07.951Z,1014.72
2018-06-29T03:55:07.950Z,1014.66
2018-06-29T03:56:07.955Z,1014.69
2018-06-29T03:57:07.960Z,1014.68
2018-06-29T03:58:07.964Z,1014.68
2018-06-29T03:59:07.968Z,1014.73
2018-06-29T04:00:07.975Z,1014.71
2018-06-29T04:01:07.978Z,1014.76
2018-06-29T04:02:07.982Z,1014.82
2018-06-29T04:03:08.782Z,1014.83
2018-06-29T04:04:07.988Z,1014.81
2018-06-29T04:05:07.999Z,1014.80
2018-06-29T04:06:07.996Z,1014.80
2018-06-29T04:07:08.008Z,1014.85
2018-06-29T04:08:08.014Z,1014.83
2018-06-29T04:09:08.018Z,1014.83
2018-06-29T04:10:08.024Z,1014.82
2018-06-29T04:11:08.030Z,1014.84
2018-06-29T04:12:08.024Z,1014.85
2018-06-29T04:13:08.036Z,1014.87
2018-06-29T04:14:08.038Z,1014.88
2018-06-29T04:15:08.046Z,1014.91
2018-06-29T04:16:08.054Z,1014.98
2018-06-29T04:17:08.058Z,1014.94
2018-06-29T04:18:08.072Z,1014.96
2018-06-29T04:19:08.066Z,1014.99
2018-06-29T04:20:08.074Z,1015.05
2018-06-29T04:21:08.078Z,1015.09
2018-06-29T04:22:08.091Z,1015.08
2018-06-29T04:23:08.089Z,1015.06
2018-06-29T04:24:08.107Z,1015.12
2018-06-29T04:25:08.105Z,1015.11
2018-06-29T04:26:08.115Z,1015.10
2018-06-29T04:27:08.126Z,1015.09
2018-06-29T04:28:08.154Z,1015.14
2018-06-29T04:29:08.139Z,1015.17
2018-06-29T04:30:08.149Z,1015.17
2018-06-29T04:31:08.163Z,1015.16
2018-06-29T04:32:08.161Z,1015.19
2018-06-29T04:33:08.177Z,1015.22
2018-06-29T04:34:08.187Z,1015.18
2018-06-29T04:35:08.198Z,1015.18
2018-06-29T04:36:08.207Z,1015.19
2018-06-29T04:37:08.217Z,1015.02
2018-06-29T04:38:08.221Z,1014.95
2018-06-29T04:39:08.238Z,1014.94
2018-06-29T04:40:08.232Z,1014.92
2018-06-29T04:41:08.254Z,1014.92
2018-06-29T04:42:08.259Z,1014.91
2018-06-29T04:43:08.273Z,1014.88
2018-06-29T04:44:08.284Z,1014.87
2018-06-29T04:45:08.281Z,1014.86
2018-06-29T04:46:08.294Z,1014.84
2018-06-29T04:47:08.303Z,1014.86
2018-06-29T04:48:08.313Z,1014.82
2018-06-29T04:49:08.312Z,1014.82
2018-06-29T04:50:08.329Z,1014.80
2018-06-29T04:51:08.332Z,1014.77
2018-06-29T04:52:08.346Z,1014.72
2018-06-29T04:53:08.356Z,1014.72
2018-06-29T04:54:08.368Z,1014.67
2018-06-29T04:55:08.363Z,1014.68
2018-06-29T04:56:08.371Z,1014.65
2018-06-29T04:57:08.381Z,1014.66
2018-06-29T04:58:08.388Z,1014.68
2018-06-29T04:59:08.397Z,1014.68
2018-06-29T05:00:09.305Z,1014.68
2018-06-29T05:01:08.409Z,1014.70
2018-06-29T05:02:08.410Z,1014.75
2018-06-29T05:03:08.424Z,1014.75
2018-06-29T05:04:08.431Z,1014.78
2018-06-29T05:05:08.439Z,1014.76
2018-06-29T05:06:08.440Z,1014.76
2018-06-29T05:07:08.448Z,1014.75
2018-06-29T05:08:08.451Z,1014.76
2018-06-29T05:09:08.462Z,1014.79
2018-06-29T05:10:08.465Z,1014.76
2018-06-29T05:11:08.476Z,1014.79
2018-06-29T05:12:08.477Z,1014.88
2018-06-29T05:13:08.488Z,1015.01
2018-06-29T05:14:08.488Z,1015.22
2018-06-29T05:15:08.514Z,1015.25
2018-06-29T05:16:08.503Z,1015.29
2018-06-29T05:17:08.508Z,1015.27
2018-06-29T05:18:08.523Z,1015.23
2018-06-29T05:19:08.518Z,1015.27
2018-06-29T05:20:08.530Z,1015.30
2018-06-29T05:21:08.534Z,1015.33
2018-06-29T05:22:08.548Z,1015.32
2018-06-29T05:23:08.552Z,1015.31
2018-06-29T05:24:08.567Z,1015.29
2018-06-29T05:25:08.567Z,1015.38
2018-06-29T05:26:08.582Z,1015.40
2018-06-29T05:27:08.583Z,1015.38
2018-06-29T05:28:08.610Z,1015.44
2018-06-29T05:29:08.603Z,1015.47
2018-06-29T05:30:08.626Z,1015.53
2018-06-29T05:31:08.631Z,1015.51
2018-06-29T05:32:08.647Z,1015.53
2018-06-29T05:33:08.646Z,1015.49
2018-06-29T05:34:08.655Z,1015.53
2018-06-29T05:35:08.678Z,1015.51
2018-06-29T05:36:08.683Z,1015.50
2018-06-29T05:37:08.694Z,1015.49
2018-06-29T05:38:08.701Z,1015.50
2018-06-29T05:39:08.732Z,1015.45
2018-06-29T05:40:08.729Z,1015.48
2018-06-29T05:41:08.751Z,1015.51
2018-06-29T05:42:08.772Z,1015.57
2018-06-29T05:43:08.776Z,1015.59
2018-06-29T05:44:08.786Z,1015.57
2018-06-29T05:45:08.800Z,1015.64
2018-06-29T05:46:08.824Z,1015.68
2018-06-29T05:47:08.824Z,1015.69
2018-06-29T05:48:08.843Z,1015.66
2018-06-29T05:49:08.865Z,1015.66
2018-06-29T05:50:08.867Z,1015.66
2018-06-29T05:51:08.879Z,1015.68
2018-06-29T05:52:08.895Z,1015.67
2018-06-29T05:53:08.980Z,1015.71
2018-06-29T05:54:08.923Z,1015.71
2018-06-29T05:55:08.941Z,1015.68
2018-06-29T05:56:11.833Z,1015.70
2018-06-29T05:57:16.816Z,1015.69
2018-06-29T05:58:09.202Z,1015.70
2018-06-29T05:59:09.013Z,1015.73
2018-06-29T06:00:09.016Z,1015.71
2018-06-29T06:01:09.035Z,1015.74
2018-06-29T06:02:09.095Z,1015.78
2018-06-29T06:03:10.826Z,1015.80
2018-06-29T06:04:11.823Z,1015.78
2018-06-29T06:05:10.824Z,1015.78
2018-06-29T06:06:10.833Z,1015.80
2018-06-29T06:07:09.130Z,1015.83
2018-06-29T06:08:09.148Z,1015.85
2018-06-29T06:09:09.162Z,1015.86
2018-06-29T06:10:11.940Z,1015.85
2018-06-29T06:11:09.194Z,1015.82
2018-06-29T06:12:12.819Z,1015.84
2018-06-29T06:13:16.831Z,1015.86
2018-06-29T06:14:09.243Z,1015.87
2018-06-29T06:15:09.264Z,1015.90
2018-06-29T06:16:11.918Z,1015.88
2018-06-29T06:17:09.291Z,1015.83
2018-06-29T06:18:10.832Z,1015.83
2018-06-29T06:19:09.336Z,1015.77
2018-06-29T06:20:11.335Z,1015.74
2018-06-29T06:21:15.331Z,1015.80
2018-06-29T06:22:10.404Z,1015.81
2018-06-29T06:23:09.399Z,1015.79
2018-06-29T06:24:12.337Z,1015.80
2018-06-29T06:25:09.442Z,1015.76
2018-06-29T06:26:09.452Z,1015.78
2018-06-29T06:27:12.336Z,1015.83
2018-06-29T06:28:09.504Z,1015.83
2018-06-29T06:29:09.509Z,1015.87
2018-06-29T06:30:11.328Z,1015.84
2018-06-29T06:31:11.326Z,1015.90
2018-06-29T06:32:11.336Z,1015.90
2018-06-29T06:33:09.659Z,1015.86
2018-06-29T06:34:11.337Z,1015.88
2018-06-29T06:35:10.617Z,1015.82
2018-06-29T06:36:09.647Z,1015.92
2018-06-29T06:37:12.339Z,1015.91
2018-06-29T06:38:09.673Z,1015.87
2018-06-29T06:39:09.806Z,1015.89
2018-06-29T06:40:09.729Z,1015.89
2018-06-29T06:41:12.335Z,1015.89
2018-06-29T06:42:12.619Z,1015.91
2018-06-29T06:43:13.131Z,1015.93
2018-06-29T06:44:10.971Z,1015.87
2018-06-29T06:45:11.345Z,1015.90
2018-06-29T06:46:12.341Z,1015.90
2018-06-29T06:47:12.340Z,1015.93
2018-06-29T06:48:10.872Z,1015.93
2018-06-29T06:49:09.891Z,1015.95
2018-06-29T06:50:12.845Z,1015.96
2018-06-29T06:51:12.841Z,1015.95
2018-06-29T06:52:10.953Z,1015.96
2018-06-29T06:53:12.849Z,1015.97
2018-06-29T06:54:10.985Z,1015.95
2018-06-29T06:55:11.859Z,1015.93
2018-06-29T06:56:12.835Z,1015.89
2018-06-29T06:57:11.869Z,1015.86
2018-06-29T06:58:12.846Z,1015.84
2018-06-29T06:59:12.860Z,1015.86
2018-06-29T07:00:21.847Z,1015.88
2018-06-29T07:01:11.121Z,1015.86
2018-06-29T07:02:12.839Z,1015.87
2018-06-29T07:03:11.182Z,1015.83
2018-06-29T07:04:11.191Z,1015.82
2018-06-29T07:05:11.862Z,1015.84
2018-06-29T07:06:13.869Z,1015.82
2018-06-29T07:07:15.851Z,1015.78
2018-06-29T07:08:17.850Z,1015.76
2018-06-29T07:09:11.302Z,1015.74
2018-06-29T07:10:17.850Z,1015.81
2018-06-29T07:11:11.338Z,1015.77
2018-06-29T07:12:11.853Z,1015.79
2018-06-29T07:13:11.374Z,1015.79
2018-06-29T07:14:12.365Z,1015.78
2018-06-29T07:15:12.352Z,1015.85
2018-06-29T07:16:26.357Z,1015.86
2018-06-29T07:17:11.465Z,1015.84
2018-06-29T07:18:14.370Z,1015.83
2018-06-29T07:19:13.366Z,1015.86
2018-06-29T07:20:12.368Z,1015.85
2018-06-29T07:21:26.403Z,1015.83
2018-06-29T07:22:14.357Z,1015.83
2018-06-29T07:23:10.598Z,1015.82
2018-06-29T07:24:10.611Z,1015.80
2018-06-29T07:25:11.629Z,1015.82
2018-06-29T07:26:12.376Z,1015.76
2018-06-29T07:27:12.421Z,1015.77
2018-06-29T07:28:12.377Z,1015.82
2018-06-29T07:29:13.357Z,1015.83
2018-06-29T07:30:13.390Z,1015.83
2018-06-29T07:31:12.363Z,1015.82
2018-06-29T07:32:12.361Z,1015.87
2018-06-29T07:33:10.803Z,1015.87
2018-06-29T07:34:10.829Z,1015.87
2018-06-29T07:35:10.868Z,1015.87
2018-06-29T07:36:10.869Z,1015.86
2018-06-29T07:37:10.897Z,1015.86
2018-06-29T07:38:10.916Z,1015.82
2018-06-29T07:39:10.944Z,1015.83
2018-06-29T07:40:10.967Z,1015.78
2018-06-29T07:41:10.980Z,1015.81
2018-06-29T07:42:11.009Z,1015.80
2018-06-29T07:43:11.024Z,1015.76
2018-06-29T07:44:11.046Z,1015.77
2018-06-29T07:45:11.855Z,1015.80
2018-06-29T07:46:11.090Z,1015.81
2018-06-29T07:47:11.120Z,1015.81
2018-06-29T07:48:11.133Z,1015.82
2018-06-29T07:49:11.164Z,1015.78
2018-06-29T07:50:11.202Z,1015.79
2018-06-29T07:51:11.215Z,1015.84
2018-06-29T07:52:11.231Z,1015.87
2018-06-29T07:53:11.282Z,1015.87
2018-06-29T07:54:11.274Z,1015.83
2018-06-29T07:55:11.303Z,1015.83
2018-06-29T07:56:11.380Z,1015.82
2018-06-29T07:57:11.361Z,1015.83
2018-06-29T07:58:11.477Z,1015.82
2018-06-29T07:59:11.389Z,1015.82
2018-06-29T08:00:11.413Z,1015.78
2018-06-29T08:01:11.433Z,1015.80
2018-06-29T08:02:11.485Z,1015.77
2018-06-29T08:03:11.484Z,1015.82
2018-06-29T08:04:11.509Z,1015.81
2018-06-29T08:05:11.541Z,1015.82
2018-06-29T08:06:11.571Z,1015.85
2018-06-29T08:07:11.574Z,1015.82
2018-06-29T08:08:11.599Z,1015.80
2018-06-29T08:09:11.619Z,1015.78
2018-06-29T08:10:11.647Z,1015.79
2018-06-29T08:11:11.667Z,1015.74
2018-06-29T08:12:11.695Z,1015.77
2018-06-29T08:13:11.714Z,1015.73
2018-06-29T08:14:11.743Z,1015.76
2018-06-29T08:15:11.764Z,1015.82
2018-06-29T08:16:11.784Z,1015.76
2018-06-29T08:17:11.806Z,1015.78
2018-06-29T08:18:11.828Z,1015.73
2018-06-29T08:19:11.861Z,1015.75
2018-06-29T08:20:11.881Z,1015.77
2018-06-29T08:21:11.908Z,1015.74
2018-06-29T08:22:11.925Z,1015.75
2018-06-29T08:23:11.953Z,1015.77
2018-06-29T08:24:11.977Z,1015.70
2018-06-29T08:25:12.000Z,1015.71
2018-06-29T08:26:12.020Z,1015.74
2018-06-29T08:27:12.038Z,1015.75
2018-06-29T08:28:12.071Z,1015.75
2018-06-29T08:29:13.866Z,1015.71
2018-06-29T08:30:12.116Z,1015.69
2018-06-29T08:31:12.190Z,1015.65
2018-06-29T08:32:12.158Z,1015.60
2018-06-29T08:33:12.184Z,1015.68
2018-06-29T08:34:12.243Z,1015.61
2018-06-29T08:35:12.229Z,1015.66
2018-06-29T08:36:12.256Z,1015.63
2018-06-29T08:37:12.283Z,1015.69
2018-06-29T08:38:12.309Z,1015.64
2018-06-29T08:39:12.331Z,1015.75
2018-06-29T08:40:12.351Z,1015.72
2018-06-29T08:41:12.380Z,1015.80
2018-06-29T08:42:12.398Z,1015.80
2018-06-29T08:43:12.423Z,1015.78
2018-06-29T08:44:12.501Z,1015.80
2018-06-29T08:45:12.471Z,1015.81
2018-06-29T08:46:12.500Z,1015.73
2018-06-29T08:47:12.516Z,1015.71
2018-06-29T08:48:12.541Z,1015.70
2018-06-29T08:49:12.566Z,1015.72
2018-06-29T08:50:12.585Z,1015.75
2018-06-29T08:51:12.617Z,1015.71
2018-06-29T08:52:12.637Z,1015.69
2018-06-29T08:53:12.680Z,1015.69
2018-06-29T08:54:12.683Z,1015.69
2018-06-29T08:55:12.709Z,1015.70
2018-06-29T08:56:12.730Z,1015.64
2018-06-29T08:57:12.790Z,1015.63
2018-06-29T08:58:12.784Z,1015.65
2018-06-29T08:59:12.797Z,1015.69
2018-06-29T09:00:12.824Z,1015.68
2018-06-29T09:01:12.852Z,1015.66
2018-06-29T09:02:12.875Z,1015.66
2018-06-29T09:03:12.902Z,1015.66
2018-06-29T09:04:12.947Z,1015.57
2018-06-29T09:05:12.949Z,1015.55
2018-06-29T09:06:12.971Z,1015.59
2018-06-29T09:07:12.987Z,1015.55
2018-06-29T09:08:13.019Z,1015.55
2018-06-29T09:09:13.033Z,1015.53
2018-06-29T09:10:13.066Z,1015.51
2018-06-29T09:11:13.084Z,1015.49
2018-06-29T09:12:13.109Z,1015.48
2018-06-29T09:13:13.132Z,1015.44
2018-06-29T09:14:13.155Z,1015.33
2018-06-29T09:15:13.178Z,1015.23
2018-06-29T09:16:13.205Z,1015.12
2018-06-29T09:17:13.244Z,1014.94
2018-06-29T09:18:13.253Z,1014.80
2018-06-29T09:19:13.274Z,1014.67
2018-06-29T09:20:14.878Z,1014.60
2018-06-29T09:21:13.317Z,1014.53
2018-06-29T09:22:13.342Z,1014.52
2018-06-29T09:23:13.366Z,1014.53
2018-06-29T09:24:13.391Z,1014.51
2018-06-29T09:25:13.422Z,1014.48
2018-06-29T09:26:13.439Z,1014.41
2018-06-29T09:27:13.469Z,1014.36
2018-06-29T09:28:13.489Z,1014.38
2018-06-29T09:29:13.516Z,1014.33
2018-06-29T09:30:13.542Z,1014.32
2018-06-29T09:31:13.563Z,1014.27
2018-06-29T09:32:13.583Z,1014.26
2018-06-29T09:33:13.615Z,1014.26
2018-06-29T09:34:13.630Z,1014.22
2018-06-29T09:35:13.663Z,1014.23
2018-06-29T09:36:13.721Z,1014.23
2018-06-29T09:37:13.710Z,1014.20
2018-06-29T09:38:13.735Z,1014.23
2018-06-29T09:39:13.750Z,1014.23
2018-06-29T09:40:13.776Z,1014.12
2018-06-29T09:41:13.804Z,1014.11
2018-06-29T09:42:13.828Z,1014.13
2018-06-29T09:43:13.850Z,1014.14
2018-06-29T09:44:13.869Z,1014.10
2018-06-29T09:45:13.906Z,1014.20
2018-06-29T09:46:13.921Z,1014.19
2018-06-29T09:47:13.946Z,1014.14
2018-06-29T09:48:13.999Z,1014.07
2018-06-29T09:49:14.002Z,1014.08
2018-06-29T09:50:14.025Z,1014.05
2018-06-29T09:51:14.040Z,1014.09
2018-06-29T09:52:14.073Z,1014.03
2018-06-29T09:53:14.898Z,1014.00
2018-06-29T09:54:14.117Z,1014.03
2018-06-29T09:55:14.145Z,1013.96
2018-06-29T09:56:14.170Z,1013.92
2018-06-29T09:57:14.191Z,1013.93
2018-06-29T09:58:14.209Z,1013.88
2018-06-29T09:59:14.251Z,1013.90
2018-06-29T10:00:14.325Z,1013.92
2018-06-29T10:01:14.299Z,1013.84
2018-06-29T10:02:14.314Z,1013.84
2018-06-29T10:03:14.332Z,1013.77
2018-06-29T10:04:14.357Z,1013.76
2018-06-29T10:05:14.387Z,1013.75
2018-06-29T10:06:14.405Z,1013.73
2018-06-29T10:07:14.433Z,1013.70
2018-06-29T10:08:14.458Z,1013.76
2018-06-29T10:09:14.475Z,1013.74
2018-06-29T10:10:14.503Z,1013.81
2018-06-29T10:11:14.525Z,1013.84
2018-06-29T10:12:14.549Z,1013.82
2018-06-29T10:13:14.572Z,1013.78
2018-06-29T10:14:14.730Z,1013.72
2018-06-29T10:15:14.619Z,1013.75
2018-06-29T10:16:14.643Z,1013.72
2018-06-29T10:17:14.676Z,1013.67
2018-06-29T10:18:14.692Z,1013.68
2018-06-29T10:19:14.719Z,1013.67
2018-06-29T10:20:14.789Z,1013.69
2018-06-29T10:21:14.760Z,1013.64
2018-06-29T10:22:14.843Z,1013.66
2018-06-29T10:23:14.809Z,1013.63
2018-06-29T10:24:14.855Z,1013.62
2018-06-29T10:25:14.874Z,1013.67
2018-06-29T10:26:14.882Z,1013.67
2018-06-29T10:27:14.909Z,1013.67
2018-06-29T10:28:15.016Z,1013.62
2018-06-29T10:29:14.960Z,1013.63
2018-06-29T10:30:14.977Z,1013.62
2018-06-29T10:31:15.011Z,1013.61
2018-06-29T10:32:15.023Z,1013.57
2018-06-29T10:33:15.056Z,1013.54
2018-06-29T10:34:15.071Z,1013.52
2018-06-29T10:35:15.103Z,1013.53
2018-06-29T10:36:15.118Z,1013.48
2018-06-29T10:37:15.149Z,1013.48
2018-06-29T10:38:15.170Z,1013.47
2018-06-29T10:39:15.199Z,1013.49
2018-06-29T10:40:15.213Z,1013.48
2018-06-29T10:41:15.241Z,1013.47
2018-06-29T10:42:15.262Z,1013.47
2018-06-29T10:43:15.292Z,1013.41
2018-06-29T10:44:15.308Z,1013.47
2018-06-29T10:45:15.337Z,1013.44
2018-06-29T10:46:15.356Z,1013.43
2018-06-29T10:47:15.383Z,1013.40
2018-06-29T10:48:15.402Z,1013.45
2018-06-29T10:49:15.445Z,1013.45
2018-06-29T10:50:15.451Z,1013.41
2018-06-29T10:51:15.478Z,1013.45
2018-06-29T10:52:15.498Z,1013.40
2018-06-29T10:53:15.527Z,1013.46
2018-06-29T10:54:15.546Z,1013.41
2018-06-29T10:55:15.574Z,1013.38
2018-06-29T10:56:15.589Z,1013.39
2018-06-29T10:57:15.671Z,1013.38
2018-06-29T10:58:15.643Z,1013.34
2018-06-29T10:59:15.657Z,1013.34
2018-06-29T11:00:15.683Z,1013.33
2018-06-29T11:01:15.702Z,1013.33
2018-06-29T11:02:15.734Z,1013.29
2018-06-29T11:03:15.762Z,1013.30
2018-06-29T11:04:15.780Z,1013.29
2018-06-29T11:05:15.805Z,1013.28
2018-06-29T11:06:15.822Z,1013.28
2018-06-29T11:07:15.848Z,1013.22
2018-06-29T11:08:15.858Z,1013.26
2018-06-29T11:09:17.471Z,1013.26
2018-06-29T11:10:15.926Z,1013.24
2018-06-29T11:11:15.933Z,1013.22
2018-06-29T11:12:15.960Z,1013.23
2018-06-29T11:13:15.972Z,1013.20
2018-06-29T11:14:15.993Z,1013.21
2018-06-29T11:15:16.024Z,1013.19
2018-06-29T11:16:16.037Z,1013.18
2018-06-29T11:17:16.065Z,1013.13
2018-06-29T11:18:16.098Z,1013.17
2018-06-29T11:19:16.110Z,1013.16
2018-06-29T11:20:16.128Z,1013.16
2018-06-29T11:21:16.156Z,1013.15
2018-06-29T11:22:16.171Z,1013.14
2018-06-29T11:23:16.688Z,1013.10
2018-06-29T11:24:16.222Z,1013.12
2018-06-29T11:25:16.235Z,1013.08
2018-06-29T11:26:16.262Z,1013.09
2018-06-29T11:27:16.280Z,1013.08
2018-06-29T11:28:16.298Z,1013.08
2018-06-29T11:29:16.329Z,1013.02
2018-06-29T11:30:16.405Z,1013.06
2018-06-29T11:31:16.363Z,1013.09
2018-06-29T11:32:16.392Z,1013.04
2018-06-29T11:33:16.507Z,1013.01
2018-06-29T11:34:16.936Z,1013.00
2018-06-29T11:35:16.448Z,1012.99
2018-06-29T11:36:16.473Z,1013.02
2018-06-29T11:37:16.493Z,1013.00
2018-06-29T11:38:16.512Z,1013.06
2018-06-29T11:39:16.539Z,1013.00
2018-06-29T11:40:16.553Z,1013.05
2018-06-29T11:41:16.580Z,1012.98
2018-06-29T11:42:16.598Z,1012.97
2018-06-29T11:43:16.622Z,1012.98
2018-06-29T11:44:16.730Z,1012.97
2018-06-29T11:45:16.660Z,1012.95
2018-06-29T11:46:16.677Z,1012.91
2018-06-29T11:47:16.703Z,1012.95
2018-06-29T11:48:16.723Z,1012.92
2018-06-29T11:49:16.737Z,1012.90
2018-06-29T11:50:16.760Z,1012.99
2018-06-29T11:51:16.793Z,1012.92
2018-06-29T11:52:16.801Z,1012.95
2018-06-29T11:53:16.815Z,1012.88
2018-06-29T11:54:16.838Z,1012.86
2018-06-29T11:55:16.858Z,1012.82
2018-06-29T11:56:16.874Z,1012.85
2018-06-29T11:57:16.899Z,1012.88
2018-06-29T11:58:16.910Z,1012.90
2018-06-29T11:59:16.936Z,1012.90
2018-06-29T12:00:16.945Z,1012.91
2018-06-29T12:01:16.971Z,1012.90
2018-06-29T12:02:16.989Z,1012.92
2018-06-29T12:03:16.999Z,1012.87
2018-06-29T12:04:17.025Z,1012.83
2018-06-29T12:05:17.042Z,1012.76